createdAt,value
2018-01-14T00:00:12.400Z,4.40
2018-01-14T00:02:39.102Z,4.30
2018-01-14T00:05:05.852Z,4.37
2018-01-14T00:07:32.604Z,4.40
2018-01-14T00:09:59.243Z,4.43
2018-01-14T00:12:25.853Z,5.33
2018-01-14T00:14:52.536Z,5.00
2018-01-14T00:17:19.317Z,6.57
2018-01-14T00:19:46.836Z,5.33
2018-01-14T00:22:13.501Z,5.53
2018-01-14T00:24:40.351Z,5.03
2018-01-14T00:27:07.084Z,5.27
2018-01-14T00:29:33.729Z,5.00
2018-01-14T00:32:00.363Z,4.70
2018-01-14T00:34:27.111Z,5.23
2018-01-14T00:36:53.875Z,4.87
2018-01-14T00:39:20.626Z,5.40
2018-01-14T00:41:47.348Z,6.33
2018-01-14T00:44:14.200Z,5.30
2018-01-14T00:46:41.144Z,5.20
2018-01-14T00:49:07.804Z,5.33
2018-01-14T00:51:34.606Z,5.37
2018-01-14T00:54:01.483Z,5.00
2018-01-14T00:56:28.310Z,5.90
2018-01-14T00:58:54.910Z,5.07
2018-01-14T01:01:21.621Z,5.80
2018-01-14T01:03:48.296Z,5.97
2018-01-14T01:06:15.111Z,5.57
2018-01-14T01:08:41.723Z,6.10
2018-01-14T01:11:08.574Z,4.73
2018-01-14T01:13:35.272Z,5.00
2018-01-14T01:16:08.939Z,5.73
2018-01-14T01:18:35.808Z,5.20
2018-01-14T01:21:02.544Z,5.27
2018-01-14T01:23:29.296Z,5.77
2018-01-14T01:25:56.135Z,5.43
2018-01-14T01:28:22.724Z,5.70
2018-01-14T01:30:50.239Z,5.50
2018-01-14T01:33:16.895Z,5.47
2018-01-14T01:35:43.654Z,6.30
2018-01-14T01:38:10.342Z,4.93
2018-01-14T01:40:37.015Z,5.27
2018-01-14T01:43:03.763Z,5.90
2018-01-14T01:45:30.477Z,4.97
2018-01-14T01:47:57.360Z,5.60
2018-01-14T01:50:24.104Z,5.63
2018-01-14T01:52:50.846Z,6.40
2018-01-14T01:55:17.602Z,5.57
2018-01-14T01:57:44.251Z,5.63
2018-01-14T02:00:11.088Z,5.20
2018-01-14T02:02:37.931Z,5.87
2018-01-14T02:05:04.596Z,5.33
2018-01-14T02:07:31.274Z,5.53
2018-01-14T02:09:58.784Z,5.40
2018-01-14T02:12:25.467Z,5.37
2018-01-14T02:14:52.224Z,5.90
2018-01-14T02:17:19.672Z,4.93
2018-01-14T02:19:46.383Z,5.73
2018-01-14T02:22:13.027Z,5.77
2018-01-14T02:24:39.937Z,6.03
2018-01-14T02:27:06.682Z,6.00
2018-01-14T02:29:33.464Z,5.77
2018-01-14T02:32:00.215Z,5.30
2018-01-14T02:34:26.969Z,5.53
2018-01-14T02:36:53.759Z,6.00
2018-01-14T02:39:21.269Z,6.53
2018-01-14T02:41:48.008Z,5.60
2018-01-14T02:44:14.756Z,5.50
2018-01-14T02:46:41.536Z,6.30
2018-01-14T02:49:08.248Z,5.97
2018-01-14T02:51:35.095Z,6.23
2018-01-14T02:54:01.847Z,6.43
2018-01-14T02:56:28.584Z,6.10
2018-01-14T02:58:55.239Z,5.40
2018-01-14T03:01:21.974Z,5.80
2018-01-14T03:03:48.726Z,5.83
2018-01-14T03:06:15.565Z,5.67
2018-01-14T03:08:42.213Z,6.07
2018-01-14T03:11:08.959Z,5.80
2018-01-14T03:13:35.705Z,6.13
2018-01-14T03:16:02.300Z,5.93
2018-01-14T03:18:29.715Z,5.73
2018-01-14T03:20:56.459Z,5.80
2018-01-14T03:23:23.196Z,6.77
2018-01-14T03:25:49.958Z,5.27
2018-01-14T03:28:16.687Z,5.33
2018-01-14T03:30:43.345Z,6.23
2018-01-14T03:33:09.938Z,5.87
2018-01-14T03:35:36.630Z,5.83
2018-01-14T03:38:03.363Z,5.63
2018-01-14T03:40:30.061Z,6.20
2018-01-14T03:42:57.596Z,5.93
2018-01-14T03:45:24.388Z,5.80
2018-01-14T03:47:51.263Z,5.83
2018-01-14T03:50:18.009Z,5.90
2018-01-14T03:52:44.760Z,6.50
2018-01-14T03:55:11.508Z,6.10
2018-01-14T03:57:38.160Z,5.97
2018-01-14T04:00:04.851Z,6.53
2018-01-14T04:02:32.460Z,6.30
2018-01-14T04:04:59.144Z,5.90
2018-01-14T04:07:25.943Z,6.27
2018-01-14T04:09:52.630Z,6.13
2018-01-14T04:12:19.304Z,6.37
2018-01-14T04:14:46.092Z,6.10
2018-01-14T04:17:12.831Z,6.23
2018-01-14T04:19:39.678Z,6.60
2018-01-14T04:22:06.318Z,5.77
2018-01-14T04:24:33.094Z,5.57
2018-01-14T04:26:59.813Z,6.93
2018-01-14T04:29:26.531Z,6.10
2018-01-14T04:31:53.313Z,6.30
2018-01-14T04:34:19.956Z,6.07
2018-01-14T04:36:46.803Z,5.83
2018-01-14T04:39:13.542Z,6.37
2018-01-14T04:41:40.218Z,5.83
2018-01-14T04:44:06.932Z,6.87
2018-01-14T04:46:33.687Z,6.87
2018-01-14T04:49:00.452Z,7.07
2018-01-14T04:51:27.168Z,6.60
2018-01-14T04:53:53.968Z,6.80
2018-01-14T04:56:21.483Z,6.10
2018-01-14T04:58:48.229Z,6.37
2018-01-14T05:01:14.883Z,6.77
2018-01-14T05:03:41.712Z,7.10
2018-01-14T05:06:08.435Z,6.10
2018-01-14T05:08:35.203Z,6.50
2018-01-14T05:11:01.955Z,7.00
2018-01-14T05:13:28.770Z,7.20
2018-01-14T05:15:55.548Z,6.70
2018-01-14T05:18:22.268Z,6.63
2018-01-14T05:20:49.040Z,7.13
2018-01-14T05:23:15.784Z,7.07
2018-01-14T05:25:42.524Z,7.37
2018-01-14T05:28:09.175Z,6.40
2018-01-14T05:30:35.928Z,7.13
2018-01-14T05:33:02.840Z,7.47
2018-01-14T05:35:29.607Z,6.60
2018-01-14T05:37:56.261Z,8.00
2018-01-14T05:40:22.920Z,6.13
2018-01-14T05:42:49.744Z,6.50
2018-01-14T05:45:17.212Z,6.83
2018-01-14T05:47:43.954Z,6.70
2018-01-14T05:50:10.906Z,6.67
2018-01-14T05:52:37.656Z,5.87
2018-01-14T05:55:04.400Z,5.80
2018-01-14T05:57:31.071Z,5.83
2018-01-14T05:59:57.783Z,4.97
2018-01-14T06:02:24.556Z,5.47
2018-01-14T06:04:51.275Z,5.53
2018-01-14T06:07:17.941Z,6.13
2018-01-14T06:09:44.664Z,5.30
2018-01-14T06:12:11.332Z,6.07
2018-01-14T06:14:38.160Z,5.20
2018-01-14T06:17:04.807Z,5.80
2018-01-14T06:19:31.452Z,5.70
2018-01-14T06:21:58.298Z,5.90
2018-01-14T06:24:24.935Z,5.80
2018-01-14T06:26:51.683Z,6.20
2018-01-14T06:29:18.333Z,5.87
2018-01-14T06:31:44.948Z,6.20
2018-01-14T06:34:11.719Z,6.30
2018-01-14T06:36:39.176Z,6.03
2018-01-14T06:39:05.834Z,5.67
2018-01-14T06:41:32.468Z,5.80
2018-01-14T06:43:59.207Z,6.10
2018-01-14T06:46:25.845Z,6.10
2018-01-14T06:48:52.532Z,6.23
2018-01-14T06:51:19.244Z,5.80
2018-01-14T06:53:45.929Z,5.80
2018-01-14T06:56:13.357Z,6.07
2018-01-14T06:58:40.190Z,6.53
2018-01-14T07:01:06.944Z,6.93
2018-01-14T07:03:33.625Z,6.67
2018-01-14T07:06:00.475Z,7.10
2018-01-14T07:08:28.064Z,6.33
2018-01-14T07:10:54.816Z,6.50
2018-01-14T07:13:21.593Z,7.23
2018-01-14T07:15:48.335Z,7.97
2018-01-14T07:18:14.987Z,6.67
2018-01-14T07:20:41.692Z,6.53
2018-01-14T07:23:08.472Z,7.20
2018-01-14T07:25:35.215Z,7.83
2018-01-14T07:28:01.796Z,7.17
2018-01-14T07:30:28.404Z,7.17
2018-01-14T07:32:55.015Z,7.70
2018-01-14T07:35:21.634Z,6.50
2018-01-14T07:37:48.999Z,6.40
2018-01-14T07:40:16.355Z,6.40
2018-01-14T07:42:43.848Z,6.37
2018-01-14T07:45:10.729Z,6.47
2018-01-14T07:47:37.433Z,6.90
2018-01-14T07:50:04.120Z,6.87
2018-01-14T07:52:30.713Z,6.90
2018-01-14T07:54:57.353Z,6.43
2018-01-14T07:57:24.001Z,6.20
2018-01-14T07:59:50.670Z,6.40
2018-01-14T08:02:17.287Z,6.57
2018-01-14T08:04:44.075Z,6.83
2018-01-14T08:07:10.828Z,6.40
2018-01-14T08:09:37.464Z,7.10
2018-01-14T08:12:04.303Z,5.93
2018-01-14T08:14:30.955Z,6.67
2018-01-14T08:16:57.704Z,6.20
2018-01-14T08:19:24.304Z,6.70
2018-01-14T08:21:50.941Z,6.57
2018-01-14T08:24:18.279Z,7.03
2018-01-14T08:26:44.864Z,6.20
2018-01-14T08:29:11.652Z,6.10
2018-01-14T08:31:38.237Z,7.10
2018-01-14T08:34:04.855Z,7.43
2018-01-14T08:36:32.283Z,6.30
2018-01-14T08:38:58.892Z,6.40
2018-01-14T08:41:25.475Z,6.90
2018-01-14T08:43:52.153Z,6.47
2018-01-14T08:46:19.517Z,6.33
2018-01-14T08:48:46.862Z,5.73
2018-01-14T08:51:13.496Z,6.57
2018-01-14T08:53:40.120Z,6.97
2018-01-14T08:56:06.748Z,7.30
2018-01-14T08:58:33.392Z,6.00
2018-01-14T09:01:00.050Z,7.30
2018-01-14T09:03:26.895Z,6.20
2018-01-14T09:05:53.541Z,6.10
2018-01-14T09:08:20.890Z,6.30
2018-01-14T09:10:47.468Z,6.23
2018-01-14T09:13:14.047Z,5.97
2018-01-14T09:15:40.774Z,11.50
2018-01-14T09:18:08.182Z,9.67
2018-01-14T09:20:34.808Z,8.50
2018-01-14T09:23:01.389Z,8.70
2018-01-14T09:25:28.155Z,10.50
2018-01-14T09:27:55.516Z,7.73
2018-01-14T09:33:32.892Z,7.03
2018-01-14T09:35:59.517Z,7.30
2018-01-14T09:38:26.150Z,7.27
2018-01-14T09:40:52.908Z,6.87
2018-01-14T09:43:19.549Z,8.70
2018-01-14T09:45:46.125Z,7.90
2018-01-14T09:48:13.557Z,7.70
2018-01-14T09:50:40.292Z,7.90
2018-01-14T09:53:14.014Z,7.30
2018-01-14T09:55:41.342Z,6.77
2018-01-14T09:58:08.100Z,6.27
2018-01-14T10:00:34.849Z,5.73
2018-01-14T10:03:01.523Z,5.73
2018-01-14T10:05:28.956Z,5.30
2018-01-14T10:07:55.704Z,5.47
2018-01-14T10:10:22.453Z,5.37
2018-01-14T10:12:49.149Z,5.10
2018-01-14T10:15:15.928Z,5.23
2018-01-14T10:17:42.583Z,5.33
2018-01-14T10:20:09.191Z,5.63
2018-01-14T10:22:35.861Z,4.90
2018-01-14T10:25:02.536Z,8.43
2018-01-14T10:27:29.285Z,5.50
2018-01-14T10:29:57.404Z,4.57
2018-01-14T10:32:24.182Z,5.40
2018-01-14T10:34:50.809Z,4.90
2018-01-14T10:37:17.564Z,6.17
2018-01-14T10:39:44.309Z,6.47
2018-01-14T10:42:10.967Z,6.27
2018-01-14T10:44:38.034Z,5.77
2018-01-14T10:47:04.644Z,7.10
2018-01-14T10:49:31.274Z,6.17
2018-01-14T10:51:57.876Z,5.73
2018-01-14T10:54:25.273Z,5.37
2018-01-14T10:56:51.920Z,6.83
2018-01-14T10:59:18.553Z,6.10
2018-01-14T11:01:45.170Z,6.10
2018-01-14T11:04:12.560Z,5.90
2018-01-14T11:06:39.199Z,5.97
2018-01-14T11:09:05.823Z,6.73
2018-01-14T11:11:40.164Z,6.47
2018-01-14T11:14:06.844Z,6.10
2018-01-14T11:16:34.031Z,6.00
2018-01-14T11:19:01.384Z,5.63
2018-01-14T11:21:27.992Z,5.77
2018-01-14T11:23:54.588Z,6.50
2018-01-14T11:26:21.904Z,5.63
2018-01-14T11:28:51.658Z,5.50
2018-01-14T11:31:19.015Z,5.37
2018-01-14T11:33:46.393Z,5.30
2018-01-14T11:36:13.177Z,5.83
2018-01-14T11:38:39.789Z,5.70
2018-01-14T11:41:06.434Z,5.17
2018-01-14T11:43:33.052Z,6.50
2018-01-14T11:46:00.690Z,8.57
2018-01-14T11:48:27.321Z,7.17
2018-01-14T11:50:53.947Z,6.33
2018-01-14T11:53:20.618Z,5.70
2018-01-14T11:55:47.347Z,6.10
2018-01-14T11:58:14.732Z,6.10
2018-01-14T12:00:41.335Z,6.30
2018-01-14T12:03:07.949Z,6.13
2018-01-14T12:05:35.532Z,6.20
2018-01-14T12:08:02.113Z,6.10
2018-01-14T12:10:28.724Z,6.03
2018-01-14T12:12:55.384Z,6.33
2018-01-14T12:15:22.127Z,8.60
2018-01-14T12:17:48.771Z,7.87
2018-01-14T12:20:15.615Z,8.17
2018-01-14T12:22:42.260Z,7.00
2018-01-14T12:25:09.004Z,6.57
2018-01-14T12:27:36.249Z,7.10
2018-01-14T12:30:03.206Z,6.17
2018-01-14T12:32:48.583Z,6.80
2018-01-14T12:35:15.326Z,6.23
2018-01-14T12:37:41.972Z,9.60
2018-01-14T12:40:08.758Z,9.90
2018-01-14T12:42:36.302Z,9.20
2018-01-14T12:45:03.266Z,9.57
2018-01-14T12:47:29.988Z,8.23
2018-01-14T12:49:56.647Z,9.73
2018-01-14T12:52:23.271Z,20.27
2018-01-14T12:54:50.111Z,16.30
2018-01-14T12:57:16.760Z,14.60
2018-01-14T12:59:43.552Z,14.77
2018-01-14T13:02:10.107Z,16.07
2018-01-14T13:04:37.519Z,13.10
2018-01-14T13:07:04.396Z,14.30
2018-01-14T13:09:31.113Z,13.47
2018-01-14T13:11:57.778Z,12.30
2018-01-14T13:14:24.472Z,13.30
2018-01-14T13:16:51.241Z,13.10
2018-01-14T13:19:17.892Z,13.37
2018-01-14T13:21:44.537Z,12.37
2018-01-14T13:24:11.172Z,10.70
2018-01-14T13:26:37.804Z,12.13
2018-01-14T13:29:04.466Z,13.43
2018-01-14T13:31:31.407Z,10.80
2018-01-14T13:33:58.056Z,12.73
2018-01-14T13:36:24.788Z,12.53
2018-01-14T13:38:51.548Z,10.57
2018-01-14T13:41:18.324Z,10.80
2018-01-14T13:43:45.236Z,10.43
2018-01-14T13:46:12.154Z,10.30
2018-01-14T13:48:38.837Z,10.23
2018-01-14T13:51:05.616Z,9.33
2018-01-14T13:53:32.381Z,10.87
2018-01-14T13:55:59.885Z,10.20
2018-01-14T13:58:26.640Z,9.60
2018-01-14T14:00:53.280Z,10.00
2018-01-14T14:03:20.120Z,9.33
2018-01-14T14:05:46.968Z,8.83
2018-01-14T14:08:13.627Z,8.90
2018-01-14T14:10:40.281Z,9.53
2018-01-14T14:13:07.004Z,8.50
2018-01-14T14:15:33.674Z,11.60
2018-01-14T14:18:00.357Z,11.50
2018-01-14T14:20:27.053Z,10.33
2018-01-14T14:22:53.802Z,8.60
2018-01-14T14:25:20.548Z,10.13
2018-01-14T14:27:47.550Z,9.67
2018-01-14T14:30:14.336Z,10.47
2018-01-14T14:32:41.120Z,9.47
2018-01-14T14:35:08.474Z,8.50
2018-01-14T14:37:36.006Z,9.13
2018-01-14T14:40:02.847Z,8.70
2018-01-14T14:42:29.635Z,8.27
2018-01-14T14:44:57.156Z,7.47
2018-01-14T14:47:23.902Z,7.70
2018-01-14T14:49:51.267Z,7.70
2018-01-14T14:52:17.880Z,7.50
2018-01-14T14:54:45.232Z,6.93
2018-01-14T14:57:11.828Z,7.87
2018-01-14T14:59:38.477Z,7.40
2018-01-14T15:02:05.202Z,8.07
2018-01-14T15:04:31.865Z,6.47
2018-01-14T15:06:58.545Z,7.10
2018-01-14T15:09:25.279Z,6.40
2018-01-14T15:11:51.973Z,9.10
2018-01-14T15:14:18.637Z,7.03
2018-01-14T15:16:45.268Z,7.67
2018-01-14T15:19:11.857Z,7.00
2018-01-14T15:21:39.213Z,6.70
2018-01-14T15:24:06.544Z,7.60
2018-01-14T15:26:33.135Z,7.00
2018-01-14T15:28:59.757Z,7.63
2018-01-14T15:31:27.195Z,7.27
2018-01-14T15:33:53.769Z,6.73
2018-01-14T15:36:20.501Z,7.03
2018-01-14T15:38:47.941Z,7.53
2018-01-14T15:41:14.781Z,7.20
2018-01-14T15:43:41.490Z,7.10
2018-01-14T15:46:08.156Z,6.53
2018-01-14T15:48:34.943Z,8.00
2018-01-14T15:51:02.376Z,7.07
2018-01-14T15:53:29.021Z,8.23
2018-01-14T15:55:55.769Z,7.30
2018-01-14T15:58:22.604Z,7.60
2018-01-14T16:00:49.237Z,7.60
2018-01-14T16:03:15.991Z,8.47
2018-01-14T16:05:42.608Z,10.20
2018-01-14T16:08:09.289Z,6.93
2018-01-14T16:10:35.944Z,9.43
2018-01-14T16:13:02.584Z,10.77
2018-01-14T16:15:29.197Z,9.80
2018-01-14T16:17:55.801Z,7.83
2018-01-14T16:20:23.125Z,9.47
2018-01-14T16:22:50.233Z,7.70
2018-01-14T16:25:16.935Z,6.10
2018-01-14T16:27:43.538Z,6.83
2018-01-14T16:30:10.300Z,7.00
2018-01-14T16:32:36.985Z,6.23
2018-01-14T16:35:04.400Z,6.33
2018-01-14T16:37:31.153Z,5.43
2018-01-14T16:39:58.031Z,4.97
2018-01-14T16:42:25.470Z,6.33
2018-01-14T16:44:52.428Z,5.37
2018-01-14T16:47:19.152Z,4.83
2018-01-14T16:49:45.856Z,4.67
2018-01-14T16:52:13.357Z,5.17
2018-01-14T16:54:40.211Z,4.90
2018-01-14T16:57:06.987Z,4.43
2018-01-14T16:59:33.697Z,5.47
2018-01-14T17:02:00.339Z,5.40
2018-01-14T17:04:27.109Z,5.17
2018-01-14T17:06:53.894Z,5.27
2018-01-14T17:09:20.579Z,5.13
2018-01-14T17:11:47.337Z,4.90
2018-01-14T17:14:13.968Z,5.80
2018-01-14T17:16:40.553Z,6.10
2018-01-14T17:19:07.893Z,4.67
2018-01-14T17:21:34.493Z,5.83
2018-01-14T17:24:01.088Z,5.10
2018-01-14T17:26:27.749Z,5.10
2018-01-14T17:28:55.075Z,6.10
2018-01-14T17:31:21.709Z,5.40
2018-01-14T17:33:48.326Z,6.00
2018-01-14T17:36:14.954Z,5.23
2018-01-14T17:38:41.548Z,5.27
2018-01-14T17:41:08.192Z,5.40
2018-01-14T17:43:34.863Z,5.60
2018-01-14T17:46:02.302Z,7.03
2018-01-14T17:48:28.985Z,9.13
2018-01-14T17:50:55.869Z,7.60
2018-01-14T17:53:22.496Z,8.10
2018-01-14T17:55:49.183Z,8.37
2018-01-14T17:58:15.815Z,7.00
2018-01-14T18:00:42.441Z,7.97
2018-01-14T18:03:09.082Z,8.17
2018-01-14T18:05:35.694Z,6.80
2018-01-14T18:08:02.306Z,6.90
2018-01-14T18:10:29.661Z,6.20
2018-01-14T18:12:57.005Z,6.90
2018-01-14T18:15:23.622Z,7.07
2018-01-14T18:17:50.257Z,6.27
2018-01-14T18:20:16.912Z,6.97
2018-01-14T18:22:44.286Z,7.23
2018-01-14T18:25:10.884Z,6.97
2018-01-14T18:27:37.555Z,9.50
2018-01-14T18:30:04.285Z,6.87
2018-01-14T18:32:30.946Z,7.67
2018-01-14T18:34:57.666Z,8.53
2018-01-14T18:37:24.337Z,7.63
2018-01-14T18:39:51.023Z,11.03
2018-01-14T18:42:17.646Z,7.90
2018-01-14T18:44:44.618Z,7.90
2018-01-14T18:47:12.144Z,8.10
2018-01-14T18:49:38.780Z,7.30
2018-01-14T18:52:05.412Z,7.13
2018-01-14T18:54:32.048Z,8.20
2018-01-14T18:56:58.688Z,7.87
2018-01-14T18:59:25.349Z,8.40
2018-01-14T19:01:52.802Z,8.37
2018-01-14T19:04:19.439Z,8.30
2018-01-14T19:06:46.101Z,7.63
2018-01-14T19:09:12.734Z,7.50
2018-01-14T19:11:39.392Z,7.40
2018-01-14T19:14:06.000Z,9.47
2018-01-14T19:16:32.631Z,8.03
2018-01-14T19:19:00.025Z,8.00
2018-01-14T19:21:26.663Z,9.03
2018-01-14T19:23:53.272Z,8.00
2018-01-14T19:26:20.600Z,7.30
2018-01-14T19:28:47.264Z,11.20
2018-01-14T19:31:13.870Z,7.93
2018-01-14T19:33:40.544Z,8.33
2018-01-14T19:36:07.231Z,8.10
2018-01-14T19:38:33.881Z,8.53
2018-01-14T19:41:00.528Z,8.40
2018-01-14T19:43:27.221Z,9.13
2018-01-14T19:45:53.895Z,8.40
2018-01-14T19:48:21.302Z,7.70
2018-01-14T19:50:47.925Z,8.00
2018-01-14T19:53:14.683Z,8.23
2018-01-14T19:55:41.405Z,7.77
2018-01-14T19:58:08.046Z,8.80
2018-01-14T20:00:34.756Z,8.00
2018-01-14T20:03:28.267Z,8.03
2018-01-14T20:05:54.969Z,8.20
2018-01-14T20:08:21.762Z,8.27
2018-01-14T20:10:48.420Z,8.90
2018-01-14T20:13:15.214Z,7.63
2018-01-14T20:15:41.997Z,8.00
2018-01-14T20:18:09.516Z,7.53
2018-01-14T20:20:36.238Z,8.17
2018-01-14T20:23:02.881Z,7.57
2018-01-14T20:25:29.723Z,8.90
2018-01-14T20:27:56.588Z,9.30
2018-01-14T20:30:24.038Z,10.07
2018-01-14T20:32:50.656Z,8.43
2018-01-14T20:35:17.345Z,8.07
2018-01-14T20:37:44.238Z,7.40
2018-01-14T20:40:11.002Z,7.70
2018-01-14T20:42:37.645Z,7.70
2018-01-14T20:45:04.328Z,7.00
2018-01-14T20:47:30.998Z,8.23
2018-01-14T20:49:57.675Z,7.17
2018-01-14T20:52:24.345Z,7.40
2018-01-14T20:54:51.172Z,7.97
2018-01-14T20:57:18.027Z,7.80
2018-01-14T20:59:44.584Z,7.67
2018-01-14T21:02:11.552Z,7.27
2018-01-14T21:04:38.282Z,7.83
2018-01-14T21:07:04.964Z,7.00
2018-01-14T21:09:32.457Z,7.40
2018-01-14T21:11:59.123Z,7.00
2018-01-14T21:14:25.802Z,7.63
2018-01-14T21:16:53.278Z,7.63
2018-01-14T21:19:20.700Z,7.40
2018-01-14T21:21:47.321Z,9.07
2018-01-14T21:24:14.041Z,7.87
2018-01-14T21:26:41.499Z,8.80
2018-01-14T21:29:08.147Z,9.17
2018-01-14T21:31:34.777Z,8.80
2018-01-14T21:34:02.140Z,8.53
2018-01-14T21:36:29.540Z,8.33
2018-01-14T21:38:56.177Z,8.50
2018-01-14T21:41:22.803Z,9.20
2018-01-14T21:43:49.407Z,8.63
2018-01-14T21:46:16.038Z,8.87
2018-01-14T21:48:42.736Z,9.30
2018-01-14T21:51:09.337Z,9.43
2018-01-14T21:53:35.962Z,9.40
2018-01-14T21:56:02.580Z,9.60
2018-01-14T21:58:29.262Z,9.03
2018-01-14T22:00:55.959Z,9.10
2018-01-14T22:03:22.589Z,8.80
2018-01-14T22:05:49.208Z,8.27
2018-01-14T22:08:16.560Z,8.90
2018-01-14T22:10:43.250Z,8.67
2018-01-14T22:13:09.854Z,8.87
2018-01-14T22:15:37.272Z,8.77
2018-01-14T22:18:03.918Z,9.20
2018-01-14T22:20:30.569Z,8.70
2018-01-14T22:22:57.293Z,8.67
2018-01-14T22:25:23.932Z,8.10
2018-01-14T22:27:50.525Z,8.87
2018-01-14T22:30:18.018Z,8.63
2018-01-14T22:32:44.657Z,8.70
2018-01-14T22:35:12.056Z,7.80
2018-01-14T22:37:39.469Z,8.77
2018-01-14T22:40:06.891Z,8.63
2018-01-14T22:42:33.574Z,7.60
2018-01-14T22:45:00.915Z,9.63
2018-01-14T22:47:27.510Z,7.97
2018-01-14T22:49:54.121Z,7.83
2018-01-14T22:52:21.750Z,8.03
2018-01-14T22:54:48.399Z,7.70
2018-01-14T22:57:15.284Z,7.60
2018-01-14T22:59:42.728Z,7.83
2018-01-14T23:02:09.417Z,7.83
2018-01-14T23:04:36.186Z,8.20
2018-01-14T23:07:02.846Z,7.70
2018-01-14T23:09:29.464Z,6.90
2018-01-14T23:11:56.111Z,7.33
2018-01-14T23:14:22.718Z,8.17
2018-01-14T23:16:52.294Z,6.97
2018-01-14T23:19:18.998Z,7.27
2018-01-14T23:21:45.639Z,6.33
2018-01-14T23:24:12.327Z,7.10
2018-01-14T23:26:38.944Z,7.80
2018-01-14T23:29:05.562Z,7.57
2018-01-14T23:31:32.232Z,7.23
2018-01-14T23:33:59.075Z,6.30
2018-01-14T23:36:25.767Z,7.07
2018-01-14T23:38:53.115Z,7.03
2018-01-14T23:41:19.741Z,7.43
2018-01-14T23:43:46.319Z,7.23
2018-01-14T23:46:13.745Z,6.80
2018-01-14T23:48:40.348Z,6.50
2018-01-14T23:51:07.088Z,7.60
2018-01-14T23:53:33.723Z,7.60
2018-01-14T23:56:00.332Z,8.03
2018-01-14T23:58:26.931Z,7.70
